• Join FlightAware (Why Join?)
  • Login
  • US Flag 
01:00AM EDT


 

Airport Tracker/Info


-or-


 

Live Flight TrackerFlight Track Log ✈ SKW4632 ✈ 13-Aug-2013 ✈ KMSO - KSLC

Flight Track Log - Related Links

Times and Time Zones

All times are in EDT time to prevent confusion due to time zone crossing. See the SKW4632 flight status page for this flight to view local times or setup timezone preferences in your user account.

Time Position Orientation Groundspeed Altitude Reporting Facility
EDT Latitude Longitude Course Direction KTS MPH feet Rate Location/Type
03:24PM 46.8275 -114.0672 185° South 217 250 6,600  Level Salt Lake Center
03:25PM 46.7644 -114.0528 171° South 228 262 8,900 1,920 Climbing Salt Lake Center
03:26PM 46.5625 -113.9556 180° South  Level Estimated
03:26PM 46.6892 -114.0367 172° South 256 295 10,600  Level Salt Lake Center
03:27PM 46.4804 -114.0142 206° Southwest  Level FlightAware Approximate
03:27PM 46.6119 -114.0228 173° South 278 320 12,400  Level Salt Lake Center
03:28PM 46.3922 -113.9794 180° South  Level Estimated
03:28PM 46.5267 -114.0575 196° South 309 356 14,100  Level Salt Lake Center
03:29PM 46.4447 -114.0822 192° South 309 356 15,900 1,740 Climbing Salt Lake Center
03:30PM 46.3586 -114.0836 181° South 319 367 17,700 1,500 Climbing Salt Lake Center
03:31PM 46.2708 -114.0814 179° South 317 365 19,000 1,200 Climbing Salt Lake Center
03:32PM 46.1786 -114.0825 180° South 329 379 20,300 1,320 Climbing Salt Lake Center
03:33PM 46.0869 -114.0842 181° South 331 381 21,800 1,260 Climbing Salt Lake Center
03:34PM 45.9750 -114.0853 180° South 335 386 23,000 960 Climbing Salt Lake Center
03:35PM 45.8792 -114.0839 179° South 343 395 23,900 900 Climbing Salt Lake Center
03:36PM 45.7789 -114.0850 180° South 357 411 24,900 780 Climbing Salt Lake Center
03:37PM 45.6786 -114.0844 180° South 361 415 25,600 660 Climbing Salt Lake Center
03:38PM 45.5728 -114.0853 180° South 372 428 26,300 720 Climbing Salt Lake Center
03:39PM 45.4561 -114.0839 180° South 375 432 27,200 720 Climbing Salt Lake Center
03:40PM 45.3539 -114.0856 181° South 381 438 27,900 600 Climbing Salt Lake Center
03:41PM 45.2333 -114.0836 179° South 387 445 28,500 480 Climbing Salt Lake Center
03:42PM 45.1297 -114.0831 180° South 389 448 29,000 540 Climbing Salt Lake Center
03:43PM 45.0083 -114.0719 176° South 392 451 29,700 600 Climbing Salt Lake Center
03:45PM 44.9119 -114.0081 155° Southeast 400 460 30,300 600 Climbing Salt Lake Center
03:46PM 44.8019 -113.9339 154° Southeast 395 455 31,000 300 Climbing Salt Lake Center
03:47PM 44.7050 -113.8667 154° Southeast 401 461 31,000  Level Salt Lake Center
03:48PM 44.5889 -113.7875 154° Southeast 410 472 31,000  Level Salt Lake Center
03:49PM 44.4861 -113.7172 154° Southeast 422 486 31,000 240 Level Salt Lake Center
03:50PM 44.3642 -113.6333 154° Southeast 434 499 31,600 480 Climbing Salt Lake Center
03:51PM 44.2692 -113.5467 147° Southeast 430 495 32,000 180 Climbing Salt Lake Center
03:52PM 44.1583 -113.4431 146° Southeast 430 495 32,000  Level Salt Lake Center
03:53PM 44.0631 -113.3492 145° Southeast 435 501 32,000  Level Salt Lake Center
03:54PM 43.9692 -113.2564 145° Southeast 434 499 32,000  Level Salt Lake Center
03:55PM 43.8614 -113.1489 144° Southeast 429 494 32,000  Level Salt Lake Center
03:56PM 43.7589 -113.0950 159° South 415 478 32,000  Level Salt Lake Center
03:57PM 43.6375 -113.0611 169° South 403 464 32,000  Level Salt Lake Center
03:58PM 43.5292 -113.0317 169° South 412 474 32,000  Level Salt Lake Center
03:59PM 43.4019 -112.9953 168° South 418 481 32,000  Level Salt Lake Center
04:00PM 43.2936 -112.9650 169° South 417 480 32,000  Level Salt Lake Center
04:01PM 43.1644 -112.9286 168° South 424 488 32,000 -60 Level Salt Lake Center
04:02PM 43.0519 -112.8983 169° South 429 494 31,900 -420 Descending Salt Lake Center
04:03PM 42.9228 -112.8406 162° South 439 505 31,200 -660 Descending Salt Lake Center
04:04PM 42.8125 -112.7856 160° South 441 507 30,600 -600 Descending Salt Lake Center
04:05PM 42.6883 -112.7222 159° South 441 507 30,000 -300 Descending Salt Lake Center
04:06PM 42.5758 -112.6697 161° South 432 497 30,000  Level Salt Lake Center
04:07PM 42.4636 -112.6375 168° South 416 479 30,000  Level Salt Lake Center
04:08PM 42.3519 -112.6175 172° South 408 470 30,000  Level Salt Lake Center
04:09PM 42.2414 -112.5986 173° South 403 464 30,000 -780 Level Salt Lake Center
04:10PM 42.1083 -112.5764 173° South 404 465 28,500 -1,980 Descending Salt Lake Center
04:11PM 41.9986 -112.5606 174° South 399 459 26,000 -2,520 Descending Salt Lake Center
04:12PM 41.8900 -112.5444 174° South 395 455 23,400 -2,520 Descending Salt Lake Center
04:13PM 41.7831 -112.5283 174° South 392 451 20,800 -2,640 Descending Salt Lake Center
04:14PM 41.6886 -112.5047 169° South 372 428 18,400 -2,280 Descending Salt Lake Center
04:15PM 41.5719 -112.4894 174° South 366 421 16,300 -1,080 Descending Salt Lake Center
04:16PM 41.4889 -112.4144 146° Southeast 362 417 16,100 -120 Descending Salt Lake Center
04:17PM 41.4128 -112.3317 141° Southeast 358 412 16,100  Level Salt Lake Center
04:18PM 41.3417 -112.2528 140° Southeast 360 414 16,100 -300 Level Salt Lake Center
04:19PM 41.2636 -112.1708 142° Southeast 356 410 15,600 -1,140 Descending Salt Lake Center
04:20PM 41.1875 -112.1111 149° Southeast 324 373 13,800 -1,860 Descending Salt Lake Center
04:21PM 41.1119 -112.0544 151° Southeast 313 360 11,900 -1,320 Descending Salt Lake Center
04:22PM 41.0444 -112.0061 152° Southeast 269 310 11,200 -1,020 Descending Salt Lake Center
04:23PM 40.9800 -111.9969 174° South 212 244 9,900 -1,680 Descending Salt Lake Center
04:25PM 40.9231 -111.9908 175° South 191 220 7,700 -1,920 Descending Salt Lake Center
04:26PM 40.8722 -111.9853 175° South 185 213 5,900 -1,500 Descending Salt Lake Center
04:27PM 40.8283 -111.9806 175° South 161 185 4,700 -1,200 Descending Salt Lake Center